Time;durP1;ratioP1;P1;durP2;ratioP2;P2;SDS_P1;SDS_P2;PMS_P1;PMS_P2;Temp;Humidity;BMP_temperature;BMP_pressure;BME280_temperature;BME280_humidity;BME280_pressure;Samples;Min_cycle;Max_cycle;Signal;HPM_P1;HPM_P2
2023/08/16 00:04:42;;;;;;;7.93;5.22;;;;;;;22.59;100.00;100380.38;10307124;28;20189;-55
2023/08/16 00:09:43;;;;;;;7.55;5.20;;;;;;;22.54;100.00;100373.88;10298902;28;20064;-54
2023/08/16 00:14:45;;;;;;;9.88;5.90;;;;;;;22.53;100.00;100374.91;10298041;28;20054;-55
2023/08/16 00:19:47;;;;;;;5.57;5.07;;;;;;;22.51;100.00;100375.09;10291129;28;20069;-56
2023/08/16 00:24:48;;;;;;;5.85;5.35;;;;;;;22.49;100.00;100379.91;10296472;28;20065;-55
2023/08/16 00:29:50;;;;;;;6.95;5.53;;;;;;;22.48;100.00;100372.78;10288737;28;20550;-55
2023/08/16 00:34:51;;;;;;;8.82;6.15;;;;;;;22.44;100.00;100368.78;10308543;28;20124;-54
2023/08/16 00:39:52;;;;;;;6.15;5.55;;;;;;;22.41;100.00;100374.63;10303829;28;20136;-55
2023/08/16 00:44:54;;;;;;;7.65;6.70;;;;;;;22.32;100.00;100373.94;10302072;28;20650;-55
2023/08/16 00:49:56;;;;;;;6.80;6.00;;;;;;;22.31;100.00;100368.66;10303969;28;22663;-54
2023/08/16 00:54:57;;;;;;;6.22;5.65;;;;;;;22.31;100.00;100379.50;10298534;28;20058;-55
2023/08/16 00:59:59;;;;;;;6.35;5.72;;;;;;;22.27;100.00;100370.13;10303756;28;20052;-55
2023/08/16 01:05:01;;;;;;;7.85;5.95;;;;;;;22.30;100.00;100378.69;10303831;28;20050;-55
2023/08/16 01:10:03;;;;;;;7.43;6.13;;;;;;;22.27;100.00;100372.84;10300240;28;20078;-55
2023/08/16 01:15:08;;;;;;;6.32;5.82;;;;;;;22.22;100.00;100363.41;10301261;28;20057;-55
2023/08/16 01:20:12;;;;;;;6.68;6.10;;;;;;;22.23;100.00;100364.25;10297483;28;20124;-55
2023/08/16 01:25:42;;;;;;;6.50;5.85;;;;;;;22.23;100.00;100372.38;10298771;28;20054;-55
2023/08/16 01:30:45;;;;;;;8.05;7.32;;;;;;;22.21;100.00;100371.75;10289658;28;20081;-55
2023/08/16 01:35:47;;;;;;;7.13;6.43;;;;;;;22.19;100.00;100371.13;10290262;28;20058;-55
2023/08/16 01:40:58;;;;;;;12.40;8.35;;;;;;;22.17;100.00;100374.03;10300915;28;20065;-55
2023/08/16 01:46:03;;;;;;;11.13;8.88;;;;;;;22.15;100.00;100367.94;10295409;28;20057;-54
2023/08/16 01:51:06;;;;;;;10.57;7.38;;;;;;;22.19;100.00;100380.06;10299431;28;20125;-55
2023/08/16 01:56:07;;;;;;;7.93;6.63;;;;;;;22.22;100.00;100376.97;10282680;28;20041;-56
2023/08/16 02:01:09;;;;;;;7.00;6.45;;;;;;;22.22;100.00;100370.72;10299330;28;20637;-56
2023/08/16 02:06:10;;;;;;;7.13;6.45;;;;;;;22.22;100.00;100382.38;10301294;28;20152;-55
2023/08/16 02:11:12;;;;;;;5.80;5.30;;;;;;;22.20;100.00;100381.75;10301285;28;20440;-55
2023/08/16 02:16:13;;;;;;;10.05;6.82;;;;;;;22.23;100.00;100384.06;10300018;28;20050;-56
2023/08/16 02:21:15;;;;;;;9.25;6.88;;;;;;;22.22;100.00;100382.38;10302049;28;20975;-55
2023/08/16 02:26:16;;;;;;;9.48;7.15;;;;;;;22.24;100.00;100379.47;10298144;28;20064;-59
2023/08/16 02:31:18;;;;;;;10.07;7.15;;;;;;;22.26;100.00;100377.41;10299389;28;20060;-55
2023/08/16 02:36:19;;;;;;;13.25;9.77;;;;;;;22.25;100.00;100383.88;10298108;28;20137;-56
2023/08/16 02:41:21;;;;;;;19.08;12.80;;;;;;;22.24;100.00;100374.06;10297681;28;20584;-55
2023/08/16 02:46:23;;;;;;;23.42;14.45;;;;;;;22.27;100.00;100372.84;10300945;28;20054;-55
2023/08/16 02:51:24;;;;;;;25.98;17.17;;;;;;;22.24;100.00;100369.47;10288217;28;20139;-56
2023/08/16 02:56:26;;;;;;;24.13;17.42;;;;;;;22.21;100.00;100364.44;10299428;28;20050;-55
2023/08/16 03:01:27;;;;;;;26.98;16.92;;;;;;;22.22;100.00;100371.53;10306130;28;20585;-55
2023/08/16 03:06:29;;;;;;;25.15;16.45;;;;;;;22.21;100.00;100353.59;10298887;28;20074;-55
2023/08/16 03:11:30;;;;;;;19.95;15.13;;;;;;;22.23;100.00;100354.25;10303523;28;20057;-55
2023/08/16 03:16:32;;;;;;;26.60;16.13;;;;;;;22.23;100.00;100354.25;10297932;28;20046;-55
2023/08/16 03:21:34;;;;;;;22.02;14.93;;;;;;;22.24;100.00;100349.66;10301081;28;20738;-55
2023/08/16 03:26:37;;;;;;;22.13;13.40;;;;;;;22.23;100.00;100350.69;10301343;28;20397;-55
2023/08/16 03:31:38;;;;;;;16.92;11.55;;;;;;;22.13;100.00;100356.47;10304026;28;20042;-59
2023/08/16 03:36:39;;;;;;;11.85;8.68;;;;;;;22.16;100.00;100361.50;10297560;28;20655;-56
2023/08/16 03:41:41;;;;;;;12.40;8.32;;;;;;;22.18;100.00;100375.69;10297487;28;20547;-56
2023/08/16 03:46:42;;;;;;;10.40;8.68;;;;;;;22.18;100.00;100378.38;10296250;28;20704;-56
2023/08/16 03:51:44;;;;;;;10.93;7.90;;;;;;;22.18;100.00;100386.53;10287903;28;20161;-55
2023/08/16 03:56:45;;;;;;;11.55;8.48;;;;;;;22.19;100.00;100381.97;10304088;28;20981;-55
2023/08/16 04:01:47;;;;;;;13.00;9.35;;;;;;;22.15;100.00;100381.50;10298819;28;20065;-54
2023/08/16 04:06:48;;;;;;;17.92;11.68;;;;;;;22.18;100.00;100386.53;10288293;28;20621;-54
2023/08/16 04:11:51;;;;;;;15.93;11.23;;;;;;;22.19;100.00;100387.38;10313205;28;21439;-55
2023/08/16 04:16:52;;;;;;;18.63;11.47;;;;;;;22.19;100.00;100393.63;10310259;28;20140;-56
2023/08/16 04:21:54;;;;;;;19.65;13.13;;;;;;;22.16;100.00;100388.59;10295579;28;20057;-55
2023/08/16 04:26:55;;;;;;;17.98;12.57;;;;;;;22.17;100.00;100401.13;10308347;28;20070;-55
2023/08/16 04:31:57;;;;;;;17.90;12.27;;;;;;;22.16;100.00;100385.88;10296084;28;20054;-55
2023/08/16 04:36:59;;;;;;;19.13;12.13;;;;;;;22.16;100.00;100385.03;10309322;28;20143;-55
2023/08/16 04:42:00;;;;;;;20.10;13.73;;;;;;;22.14;100.00;100396.06;10308180;28;20057;-55
2023/08/16 04:47:01;;;;;;;21.70;13.13;;;;;;;22.05;100.00;100395.41;10309004;28;20057;-55
2023/08/16 04:52:03;;;;;;;23.85;14.07;;;;;;;22.05;100.00;100402.66;10284720;28;20454;-54
2023/08/16 04:57:05;;;;;;;18.65;13.23;;;;;;;22.03;100.00;100402.88;10309171;28;20534;-54
2023/08/16 05:02:08;;;;;;;23.25;14.75;;;;;;;22.02;100.00;100408.47;10309117;28;20052;-55
2023/08/16 05:07:09;;;;;;;31.35;15.63;;;;;;;21.94;100.00;100414.06;10303839;28;20418;-55
2023/08/16 05:12:11;;;;;;;30.13;17.52;;;;;;;21.91;100.00;100407.16;10300534;28;20104;-54
2023/08/16 05:17:12;;;;;;;32.33;17.42;;;;;;;21.89;100.00;100425.47;10285147;28;20057;-55
2023/08/16 05:22:14;;;;;;;27.58;15.23;;;;;;;21.93;100.00;100436.75;10293929;28;20152;-54
2023/08/16 05:27:15;;;;;;;26.23;14.20;;;;;;;21.97;100.00;100443.47;10299493;28;20513;-54
2023/08/16 05:32:17;;;;;;;21.30;14.25;;;;;;;22.01;100.00;100433.94;10297989;28;20057;-55
2023/08/16 05:37:18;;;;;;;22.33;13.38;;;;;;;22.04;100.00;100428.13;10299453;28;20053;-55
2023/08/16 05:42:20;;;;;;;17.05;10.73;;;;;;;22.05;100.00;100427.06;10296425;28;20149;-57
2023/08/16 05:47:22;;;;;;;19.27;11.30;;;;;;;22.05;100.00;100421.66;10299251;28;20050;-55
2023/08/16 05:52:24;;;;;;;20.60;11.38;;;;;;;22.04;100.00;100428.94;10297726;28;20378;-55
2023/08/16 05:57:25;;;;;;;15.80;8.65;;;;;;;22.06;100.00;100436.88;10282575;28;20057;-55
2023/08/16 06:02:27;;;;;;;14.27;8.45;;;;;;;22.04;100.00;100428.13;10300393;28;20050;-55
2023/08/16 06:07:28;;;;;;;14.23;8.98;;;;;;;22.05;100.00;100444.19;10299594;28;20050;-60
2023/08/16 06:12:30;;;;;;;12.55;8.80;;;;;;;22.04;100.00;100433.53;10285800;28;20081;-55
2023/08/16 06:17:31;;;;;;;13.27;7.78;;;;;;;22.06;100.00;100426.03;10298598;28;20054;-56
2023/08/16 06:22:34;;;;;;;13.27;8.93;;;;;;;22.11;100.00;100420.84;10294610;28;20057;-56
2023/08/16 06:27:35;;;;;;;14.65;7.25;;;;;;;22.11;100.00;100414.63;10293772;28;20069;-56
2023/08/16 06:32:36;;;;;;;12.05;7.80;;;;;;;22.09;100.00;100413.97;10293240;28;20446;-56
2023/08/16 06:37:39;;;;;;;12.07;7.47;;;;;;;22.07;100.00;100396.03;10281616;28;20058;-55
2023/08/16 06:42:40;;;;;;;10.60;6.50;;;;;;;22.04;100.00;100369.31;10296061;28;20229;-55
2023/08/16 06:47:42;;;;;;;9.10;6.10;;;;;;;22.02;100.00;100386.81;10297095;28;20054;-55
2023/08/16 06:52:44;;;;;;;7.18;5.68;;;;;;;21.97;100.00;100389.28;10296184;28;20069;-56
2023/08/16 06:57:45;;;;;;;8.88;6.40;;;;;;;22.01;100.00;100393.28;10281642;28;20938;-61
2023/08/16 07:02:48;;;;;;;9.35;6.25;;;;;;;22.05;100.00;100408.09;10280869;28;20382;-56
2023/08/16 07:07:50;;;;;;;9.00;6.38;;;;;;;22.14;100.00;100417.75;10296616;28;20053;-56
2023/08/16 07:12:52;;;;;;;6.45;5.55;;;;;;;22.18;100.00;100405.50;10284801;28;20315;-56
2023/08/16 07:17:54;;;;;;;7.82;6.18;;;;;;;22.20;100.00;100421.56;10296841;28;20209;-57
2023/08/16 07:22:58;;;;;;;6.75;5.55;;;;;;;22.25;100.00;100428.09;10291131;28;20084;-56
2023/08/16 07:27:59;;;;;;;;;;;;;;;22.29;100.00;100449.38;10294095;28;20049;-56
2023/08/16 07:33:01;;;;;;;7.80;5.47;;;;;;;22.36;100.00;100453.84;10293683;28;19930;-56
2023/08/16 07:38:03;;;;;;;7.75;6.93;;;;;;;22.40;100.00;100454.31;10294751;28;20097;-59
2023/08/16 07:43:05;;;;;;;7.53;5.75;;;;;;;22.38;100.00;100465.34;10280630;28;20216;-55
2023/08/16 07:48:06;;;;;;;8.40;7.55;;;;;;;22.42;100.00;100463.09;10292408;28;20062;-55
2023/08/16 07:53:08;;;;;;;7.32;6.63;;;;;;;22.44;100.00;100471.84;10293724;28;20543;-55
2023/08/16 07:58:10;;;;;;;6.90;6.28;;;;;;;22.45;100.00;100478.97;10292632;28;20057;-56
2023/08/16 08:03:11;;;;;;;7.18;6.32;;;;;;;22.49;100.00;100480.25;10281803;28;20061;-57
2023/08/16 08:08:14;;;;;;;7.68;6.97;;;;;;;22.59;100.00;100456.34;10280825;28;20781;-55
2023/08/16 08:13:15;;;;;;;8.83;6.93;;;;;;;22.78;100.00;100476.47;10293164;28;20057;-55
2023/08/16 08:18:17;;;;;;;7.07;5.60;;;;;;;22.96;100.00;100475.16;10294576;28;20140;-55
2023/08/16 08:23:18;;;;;;;6.95;5.45;;;;;;;23.26;100.00;100473.03;10290475;28;20062;-55
2023/08/16 08:28:22;;;;;;;6.72;5.80;;;;;;;23.24;100.00;100464.25;10281052;28;20053;-56
2023/08/16 08:33:25;;;;;;;6.80;5.25;;;;;;;23.26;99.75;100470.31;10282608;28;20137;-55
2023/08/16 08:38:26;;;;;;;9.53;8.07;;;;;;;23.34;98.63;100461.16;10291682;28;20089;-55
2023/08/16 08:43:36;;;;;;;7.00;6.20;;;;;;;23.19;99.79;100469.44;10296203;28;20041;-55
2023/08/16 08:49:01;;;;;;;8.23;7.53;;;;;;;23.20;99.91;100479.28;10273559;28;20057;-55
2023/08/16 08:54:03;;;;;;;8.90;5.93;;;;;;;23.21;100.00;100489.09;10301073;28;20136;-55
2023/08/16 08:59:06;;;;;;;6.05;5.40;;;;;;;23.29;99.97;100493.53;10301483;28;20050;-55
2023/08/16 09:04:16;;;;;;;5.70;5.20;;;;;;;23.35;99.41;100495.44;10291040;28;20247;-55
2023/08/16 09:09:20;;;;;;;7.67;5.90;;;;;;;23.43;97.59;100497.13;10304623;28;20271;-55
2023/08/16 09:14:21;;;;;;;5.22;4.25;;;;;;;23.44;98.81;100487.94;10302925;28;20061;-56
2023/08/16 09:19:23;;;;;;;4.72;4.32;;;;;;;23.62;98.02;100473.81;10305795;28;20045;-56
2023/08/16 09:24:24;;;;;;;6.47;4.55;;;;;;;23.90;96.30;100472.84;10301810;28;20054;-55
2023/08/16 09:29:26;;;;;;;5.63;5.00;;;;;;;24.29;94.94;100469.38;10303890;28;20042;-55
2023/08/16 09:34:30;;;;;;;6.10;5.40;;;;;;;24.38;91.73;100471.84;10300549;28;20046;-56
2023/08/16 09:39:34;;;;;;;5.82;5.22;;;;;;;24.47;92.93;100466.00;10283249;28;20057;-56
2023/08/16 09:44:36;;;;;;;5.10;4.70;;;;;;;24.55;92.26;100462.25;10294961;28;20088;-56
2023/08/16 09:49:39;;;;;;;5.10;4.70;;;;;;;24.55;92.37;100462.25;10297823;28;20450;-55
2023/08/16 09:54:41;;;;;;;;;;;;;;;24.65;91.75;100465.41;10296615;28;20305;-55
2023/08/16 09:59:43;;;;;;;4.28;3.88;;;;;;;24.77;91.96;100453.84;10296128;28;19976;-56
2023/08/16 10:04:45;;;;;;;6.28;3.70;;;;;;;24.96;90.66;100452.97;10279786;28;20764;-56
2023/08/16 10:09:51;;;;;;;4.82;4.32;;;;;;;25.04;90.26;100449.16;10293376;28;20180;-56
2023/08/16 10:14:53;;;;;;;4.82;4.43;;;;;;;25.11;89.60;100438.28;10296520;28;20706;-56
2023/08/16 10:20:00;;;;;;;5.70;4.68;;;;;;;25.17;89.65;100431.97;10300422;28;20711;-56
2023/08/16 10:25:13;;;;;;;4.88;4.10;;;;;;;25.49;88.37;100440.22;10294135;28;20619;-56
2023/08/16 10:30:24;;;;;;;5.72;5.07;;;;;;;25.47;84.34;100439.63;10295326;28;20054;-55
2023/08/16 10:35:27;;;;;;;4.75;4.35;;;;;;;25.39;85.94;100436.09;10296489;28;20136;-56
2023/08/16 10:40:28;;;;;;;;;;;;;;;25.49;86.62;100437.50;10296118;28;20050;-61
2023/08/16 10:45:34;;;;;;;4.25;3.30;;;;;;;25.66;86.45;100435.13;10281152;28;21008;-57
2023/08/16 10:50:39;;;;;;;3.35;2.90;;;;;;;25.81;85.88;100438.38;10293878;28;20120;-56
2023/08/16 10:55:41;;;;;;;4.40;3.22;;;;;;;25.95;84.90;100430.94;10294662;28;22236;-54
2023/08/16 11:00:42;;;;;;;3.22;3.00;;;;;;;26.11;84.53;100427.69;10295823;28;20056;-57
2023/08/16 11:05:44;;;;;;;4.63;3.30;;;;;;;26.05;83.77;100431.31;10292851;28;20061;-57
2023/08/16 11:10:45;;;;;;;3.72;3.40;;;;;;;26.21;83.81;100438.13;10293569;28;20065;-57
2023/08/16 11:15:47;;;;;;;3.75;3.40;;;;;;;26.41;82.69;100435.19;10296293;28;20586;-57
2023/08/16 11:20:49;;;;;;;4.10;3.40;;;;;;;26.31;80.49;100431.31;10299343;28;20053;-57
2023/08/16 11:25:59;;;;;;;3.93;3.00;;;;;;;26.79;80.30;100425.19;10277852;28;20378;-57
2023/08/16 11:31:05;;;;;;;3.20;2.90;;;;;;;27.27;78.35;100413.47;10296462;28;20045;-56
2023/08/16 11:36:12;;;;;;;3.15;2.85;;;;;;;27.46;77.47;100406.13;10295220;28;20065;-54
2023/08/16 11:41:18;;;;;;;3.20;3.00;;;;;;;27.91;74.79;100407.56;10295071;28;20606;-55
2023/08/16 11:46:19;;;;;;;3.17;2.55;;;;;;;28.33;72.63;100398.47;10293722;28;20064;-55
2023/08/16 11:51:21;;;;;;;2.63;2.40;;;;;;;28.54;69.37;100399.78;10290756;28;20922;-55
2023/08/16 11:56:28;;;;;;;5.17;2.80;;;;;;;28.54;68.93;100394.31;10290149;28;20057;-56
2023/08/16 12:01:30;;;;;;;3.13;2.40;;;;;;;28.79;70.13;100388.56;10293610;28;20164;-55
2023/08/16 12:06:32;;;;;;;2.85;2.50;;;;;;;28.87;66.67;100387.38;10290469;28;20060;-55
2023/08/16 12:11:35;;;;;;;2.70;2.50;;;;;;;28.73;67.35;100387.66;10276078;28;20053;-57
2023/08/16 12:16:37;;;;;;;5.07;3.83;;;;;;;28.47;68.46;100382.66;10293436;28;20053;-55
2023/08/16 12:21:38;;;;;;;3.03;2.07;;;;;;;28.28;69.31;100373.72;10290122;28;20109;-55
2023/08/16 12:26:40;;;;;;;2.63;2.40;;;;;;;28.19;69.96;100354.09;10287868;28;20156;-54
2023/08/16 12:31:42;;;;;;;4.30;2.30;;;;;;;28.18;69.64;100364.22;10282787;28;20081;-59
2023/08/16 12:36:44;;;;;;;3.10;2.80;;;;;;;28.10;69.04;100350.88;10288613;28;20742;-55
2023/08/16 12:41:46;;;;;;;4.67;3.63;;;;;;;28.07;70.77;100350.53;10302104;28;20050;-55
2023/08/16 12:46:53;;;;;;;4.13;2.25;;;;;;;28.02;69.64;100343.03;10287501;28;20050;-55
2023/08/16 12:51:55;;;;;;;2.40;2.10;;;;;;;28.11;69.87;100341.59;10297327;28;20156;-55
2023/08/16 12:56:57;;;;;;;2.90;2.17;;;;;;;28.17;70.54;100328.88;10300927;28;20128;-54
2023/08/16 13:02:07;;;;;;;2.58;2.08;;;;;;;28.37;69.44;100328.50;10301104;28;20053;-57
2023/08/16 13:07:15;;;;;;;3.03;2.70;;;;;;;28.10;67.75;100334.44;10295959;28;20049;-56
2023/08/16 13:12:28;;;;;;;2.80;2.30;;;;;;;28.15;69.34;100325.53;10296387;28;20065;-56
2023/08/16 13:17:34;;;;;;;2.22;2.03;;;;;;;28.19;68.73;100327.56;10298819;28;20083;-57
2023/08/16 13:22:43;;;;;;;2.72;2.40;;;;;;;28.12;68.27;100329.59;10299701;28;21197;-57
2023/08/16 13:27:51;;;;;;;3.65;2.60;;;;;;;28.29;69.16;100309.72;10292903;28;20046;-57
2023/08/16 13:33:03;;;;;;;6.13;2.63;;;;;;;28.37;67.35;100307.44;10293290;28;20588;-57
2023/08/16 13:38:09;;;;;;;2.40;2.00;;;;;;;28.36;68.24;100299.47;10295947;28;20057;-56
2023/08/16 13:43:13;;;;;;;2.17;1.95;;;;;;;28.38;67.86;100302.78;10293288;28;20171;-56
2023/08/16 13:48:25;;;;;;;4.63;2.40;;;;;;;28.39;66.94;100301.72;10295343;28;20048;-56
2023/08/16 13:53:26;;;;;;;3.27;2.10;;;;;;;28.47;67.50;100306.81;10297615;28;20065;-58
2023/08/16 13:58:28;;;;;;;3.37;1.97;;;;;;;28.46;67.13;100294.19;10296433;28;20177;-56
2023/08/16 14:03:30;;;;;;;;;;;;;;;28.41;64.73;100298.75;10296858;28;20100;-56
2023/08/16 14:08:31;;;;;;;2.65;2.25;;;;;;;28.31;67.78;100297.44;10293824;28;20423;-57
2023/08/16 14:13:33;;;;;;;3.60;2.00;;;;;;;28.48;67.55;100291.22;10296809;28;20069;-56
2023/08/16 14:18:37;;;;;;;2.97;2.20;;;;;;;28.51;65.76;100286.09;10279079;28;20300;-56
2023/08/16 14:23:38;;;;;;;3.17;2.05;;;;;;;28.51;66.17;100286.09;10290954;28;20130;-56
2023/08/16 14:28:40;;;;;;;3.33;2.05;;;;;;;28.50;66.52;100287.19;10289644;28;20193;-56
2023/08/16 14:33:41;;;;;;;2.70;2.50;;;;;;;28.43;67.54;100281.00;10295040;28;20057;-56
2023/08/16 14:38:43;;;;;;;2.67;2.47;;;;;;;28.37;68.03;100280.06;10291686;28;20192;-59
2023/08/16 14:44:00;;;;;;;2.88;2.58;;;;;;;28.36;67.68;100272.94;10292071;28;20422;-56
2023/08/16 14:49:03;;;;;;;2.53;1.90;;;;;;;28.42;67.28;100276.63;10290942;28;20077;-56
2023/08/16 14:54:05;;;;;;;2.22;1.92;;;;;;;28.46;67.61;100260.53;10274366;28;20730;-56
2023/08/16 14:59:06;;;;;;;2.10;1.90;;;;;;;28.44;67.00;100257.22;10293814;28;20058;-56
2023/08/16 15:04:08;;;;;;;4.20;2.73;;;;;;;28.41;66.79;100264.00;10294040;28;20822;-56
2023/08/16 15:09:09;;;;;;;3.13;2.70;;;;;;;28.39;67.10;100268.88;10296652;28;20585;-57
2023/08/16 15:14:11;;;;;;;2.67;1.97;;;;;;;28.36;67.32;100256.50;10294205;28;20499;-57
2023/08/16 15:19:14;;;;;;;3.27;1.63;;;;;;;28.28;67.59;100250.56;10293909;28;20157;-56
2023/08/16 15:24:16;;;;;;;2.03;1.83;;;;;;;28.17;68.29;100253.09;10279981;28;20058;-57
2023/08/16 15:29:18;;;;;;;2.17;1.70;;;;;;;28.07;68.08;100243.81;10290110;28;20763;-57
2023/08/16 15:34:19;;;;;;;2.42;2.20;;;;;;;27.95;68.55;100243.81;10281016;28;20415;-57
2023/08/16 15:39:20;;;;;;;2.10;1.90;;;;;;;27.89;68.54;100231.09;10294759;28;20511;-53
2023/08/16 15:44:22;;;;;;;2.28;2.10;;;;;;;27.84;68.49;100235.34;10290658;28;21679;-56
2023/08/16 15:49:24;;;;;;;3.67;2.42;;;;;;;27.78;69.92;100230.84;10289293;28;20148;-56
2023/08/16 15:54:25;;;;;;;2.60;1.98;;;;;;;27.79;70.78;100234.41;10287619;28;20188;-57
2023/08/16 15:59:27;;;;;;;3.53;2.03;;;;;;;27.73;71.13;100236.22;10290452;28;20613;-56
2023/08/16 16:04:43;;;;;;;2.90;2.60;;;;;;;27.57;71.42;100232.28;10292307;28;20049;-57
2023/08/16 16:09:45;;;;;;;2.30;2.10;;;;;;;27.58;71.48;100216.69;10291512;28;20069;-58
2023/08/16 16:14:46;;;;;;;2.38;2.13;;;;;;;27.57;71.49;100215.88;10293839;28;20081;-56
2023/08/16 16:19:47;;;;;;;2.55;2.13;;;;;;;27.54;71.73;100204.59;10297135;28;20061;-57
2023/08/16 16:24:49;;;;;;;2.70;2.10;;;;;;;27.55;71.93;100196.16;10277314;28;20061;-57
2023/08/16 16:29:51;;;;;;;2.25;2.10;;;;;;;27.51;72.25;100190.31;10292164;28;20113;-56
2023/08/16 16:34:53;;;;;;;2.22;2.03;;;;;;;27.45;72.60;100183.06;10276713;28;20057;-57
2023/08/16 16:39:54;;;;;;;3.77;1.90;;;;;;;27.44;72.98;100181.41;10289334;28;20058;-57
2023/08/16 16:44:56;;;;;;;3.33;2.27;;;;;;;27.43;73.35;100187.94;10290017;28;20108;-57
2023/08/16 16:49:57;;;;;;;3.72;2.42;;;;;;;27.36;73.64;100195.41;10290542;28;20298;-57
2023/08/16 16:54:59;;;;;;;3.33;2.97;;;;;;;27.30;73.90;100196.31;10288870;28;20050;-57
2023/08/16 17:00:01;;;;;;;3.92;2.58;;;;;;;27.24;74.07;100189.91;10288393;28;21334;-56
2023/08/16 17:05:03;;;;;;;2.63;2.42;;;;;;;27.13;74.18;100183.34;10287633;28;20060;-57
2023/08/16 17:10:05;;;;;;;2.92;2.30;;;;;;;27.08;74.70;100185.13;10288547;28;20054;-57
2023/08/16 17:15:07;;;;;;;3.72;3.00;;;;;;;27.01;75.09;100185.25;10289943;28;20112;-57
2023/08/16 17:20:09;;;;;;;3.38;2.45;;;;;;;26.97;75.59;100173.09;10296254;28;20054;-56
2023/08/16 17:25:11;;;;;;;3.00;2.50;;;;;;;26.91;76.03;100166.69;10295366;28;20784;-56
2023/08/16 17:30:12;;;;;;;3.40;3.10;;;;;;;26.93;76.29;100160.97;10294069;28;20096;-57
2023/08/16 17:35:14;;;;;;;3.17;2.43;;;;;;;26.89;76.00;100151.59;10293860;28;20152;-57
2023/08/16 17:40:15;;;;;;;2.63;2.38;;;;;;;26.78;76.12;100154.06;10290866;28;20050;-56
2023/08/16 17:45:17;;;;;;;2.40;2.20;;;;;;;26.70;76.13;100159.84;10292759;28;20673;-56
2023/08/16 17:50:18;;;;;;;3.13;2.83;;;;;;;26.62;76.37;100155.53;10293492;28;20061;-56
2023/08/16 17:55:20;;;;;;;2.85;2.30;;;;;;;26.58;76.42;100158.94;10282926;28;20054;-56
2023/08/16 18:00:22;;;;;;;3.00;2.70;;;;;;;26.50;76.83;100151.06;10280409;28;20046;-57
2023/08/16 18:05:23;;;;;;;3.50;2.20;;;;;;;26.42;76.77;100135.84;10290044;28;20050;-57
2023/08/16 18:10:25;;;;;;;2.35;2.15;;;;;;;26.35;77.55;100138.69;10282154;28;20105;-57
2023/08/16 18:15:26;;;;;;;2.85;2.47;;;;;;;26.33;78.37;100129.88;10280250;28;20118;-57
2023/08/16 18:20:28;;;;;;;2.60;2.40;;;;;;;26.23;79.92;100116.00;10301202;28;20057;-56
2023/08/16 18:25:31;;;;;;;3.38;2.60;;;;;;;26.16;77.84;100110.59;10299599;28;20137;-57
2023/08/16 18:30:32;;;;;;;;;;;;;;;26.11;75.16;100118.66;10298868;28;20045;-56
2023/08/16 18:35:34;;;;;;;5.85;2.70;;;;;;;26.08;76.27;100113.66;10299940;28;19929;-55
2023/08/16 18:40:35;;;;;;;2.45;2.25;;;;;;;25.92;78.65;100117.81;10293676;28;20050;-57
2023/08/16 18:45:37;;;;;;;5.38;2.55;;;;;;;25.88;79.29;100158.34;10304451;28;20467;-56
2023/08/16 18:50:39;;;;;;;6.88;3.10;;;;;;;25.74;82.07;100184.06;10306060;28;20038;-57
2023/08/16 18:55:41;;;;;;;7.40;3.97;;;;;;;25.73;86.60;100213.22;10286949;28;20738;-55
2023/08/16 19:00:43;;;;;;;7.85;4.25;;;;;;;25.45;89.12;100264.63;10288447;28;21409;-55
2023/08/16 19:05:45;;;;;;;5.15;3.30;;;;;;;24.97;95.56;100410.25;10281823;28;20049;-57
2023/08/16 19:10:50;;;;;;;7.93;2.77;;;;;;;24.75;93.28;100507.69;10282139;28;20058;-56
2023/08/16 19:15:51;;;;;;;2.35;0.68;;;;;;;23.08;94.71;100494.44;10300158;28;20072;-57
2023/08/16 19:20:53;;;;;;;2.60;0.88;;;;;;;21.78;100.00;100472.88;10284351;28;20060;-57
2023/08/16 19:25:55;;;;;;;2.40;1.00;;;;;;;21.96;100.00;100512.25;10299302;28;20054;-55
2023/08/16 19:30:57;;;;;;;3.05;1.00;;;;;;;22.18;100.00;100543.75;10296548;28;20042;-54
2023/08/16 19:35:59;;;;;;;5.07;1.58;;;;;;;22.05;100.00;100440.63;10295913;28;20100;-56
2023/08/16 19:41:00;;;;;;;2.47;1.20;;;;;;;22.50;100.00;100389.69;10299760;28;20088;-51
2023/08/16 19:46:01;;;;;;;2.63;1.45;;;;;;;22.84;100.00;100358.16;10278544;28;20046;-52
2023/08/16 19:51:03;;;;;;;2.20;0.98;;;;;;;22.91;94.76;100369.06;10274405;28;20394;-53
2023/08/16 19:56:05;;;;;;;3.10;2.05;;;;;;;22.99;93.97;100335.50;10296766;28;20057;-53
2023/08/16 20:01:07;;;;;;;2.35;1.25;;;;;;;23.01;92.06;100295.41;10283670;28;20878;-54
2023/08/16 20:06:08;;;;;;;2.38;1.00;;;;;;;22.87;92.77;100276.34;10300140;28;20054;-52
2023/08/16 20:11:10;;;;;;;2.28;0.90;;;;;;;22.69;92.52;100259.81;10280969;28;20065;-52
2023/08/16 20:16:11;;;;;;;5.10;0.80;;;;;;;22.73;94.22;100255.66;10294161;28;20082;-53
2023/08/16 20:21:14;;;;;;;2.78;0.68;;;;;;;22.64;96.63;100243.28;10292792;28;20057;-52
2023/08/16 20:26:15;;;;;;;2.05;0.70;;;;;;;22.62;93.58;100262.47;10293326;28;20964;-53
2023/08/16 20:31:19;;;;;;;0.90;0.47;;;;;;;22.60;95.02;100254.53;10291850;28;20815;-53
2023/08/16 20:36:21;;;;;;;3.05;1.30;;;;;;;22.30;98.06;100262.09;10292998;28;20069;-52
2023/08/16 20:41:24;;;;;;;3.08;0.55;;;;;;;22.40;96.46;100259.06;10292814;28;20558;-53
2023/08/16 20:46:37;;;;;;;2.03;0.50;;;;;;;22.31;96.89;100260.22;10294058;28;20135;-53
2023/08/16 20:51:40;;;;;;;3.97;0.68;;;;;;;22.38;95.00;100282.81;10297635;28;20038;-53
2023/08/16 20:56:42;;;;;;;1.83;0.93;;;;;;;22.34;94.42;100295.94;10299227;28;20050;-53
2023/08/16 21:01:43;;;;;;;4.75;1.10;;;;;;;22.40;98.75;100346.66;10299843;28;20061;-53
2023/08/16 21:06:44;;;;;;;2.22;1.00;;;;;;;22.37;96.73;100401.31;10299543;28;20069;-53
2023/08/16 21:11:46;;;;;;;7.40;2.35;;;;;;;22.34;97.77;100379.16;10299303;28;20058;-54
2023/08/16 21:16:47;;;;;;;3.00;1.67;;;;;;;22.29;95.99;100327.38;10296166;28;20069;-53
2023/08/16 21:21:49;;;;;;;2.05;1.40;;;;;;;22.21;97.28;100336.50;10298799;28;20062;-53
2023/08/16 21:26:51;;;;;;;2.53;1.02;;;;;;;22.12;98.71;100318.72;10298577;28;20127;-53
2023/08/16 21:31:52;;;;;;;3.40;1.38;;;;;;;22.13;98.44;100328.50;10298150;28;20216;-53
2023/08/16 21:36:54;;;;;;;1.80;1.02;;;;;;;22.12;98.77;100335.81;10299053;28;20045;-54
2023/08/16 21:41:56;;;;;;;2.40;1.00;;;;;;;22.09;98.10;100306.38;10299264;28;20065;-53
2023/08/16 21:46:57;;;;;;;1.23;0.93;;;;;;;22.05;97.79;100346.63;10300107;28;21580;-53
2023/08/16 21:51:59;;;;;;;1.30;1.00;;;;;;;22.05;99.97;100397.25;10307503;28;20053;-54
2023/08/16 21:57:00;;;;;;;2.25;0.95;;;;;;;22.05;100.00;100338.47;10309121;28;20766;-54
2023/08/16 22:02:02;;;;;;;3.10;1.33;;;;;;;22.00;100.00;100419.53;10307179;28;20139;-53
2023/08/16 22:07:03;;;;;;;3.13;1.13;;;;;;;21.99;100.00;100354.69;10303122;28;20061;-53
2023/08/16 22:12:05;;;;;;;2.90;0.82;;;;;;;21.95;99.73;100337.97;10305745;28;20054;-53
2023/08/16 22:17:07;;;;;;;2.67;1.58;;;;;;;21.91;99.25;100339.41;10308864;28;20132;-54
2023/08/16 22:22:08;;;;;;;3.35;1.65;;;;;;;21.90;100.00;100340.41;10287203;28;20125;-53
2023/08/16 22:27:10;;;;;;;2.65;1.08;;;;;;;21.90;100.00;100329.59;10303341;28;20189;-52
2023/08/16 22:32:11;;;;;;;3.55;1.48;;;;;;;21.91;100.00;100335.88;10307142;28;20061;-52
2023/08/16 22:37:13;;;;;;;1.42;0.90;;;;;;;21.84;100.00;100314.97;10302784;28;20038;-53
2023/08/16 22:42:15;;;;;;;1.23;0.63;;;;;;;21.82;100.00;100324.31;10303283;28;20470;-53
2023/08/16 22:47:16;;;;;;;2.83;0.95;;;;;;;21.78;100.00;100331.97;10291288;28;20208;-53
2023/08/16 22:52:17;;;;;;;1.38;1.00;;;;;;;21.79;100.00;100338.25;10301870;28;20217;-53
2023/08/16 22:57:19;;;;;;;1.77;1.20;;;;;;;21.77;100.00;100335.75;10304232;28;20674;-53
2023/08/16 23:02:20;;;;;;;1.38;0.73;;;;;;;21.71;100.00;100323.81;10301912;28;20050;-53